Time;durP1;ratioP1;P1;durP2;ratioP2;P2;SDS_P1;SDS_P2;PMS_P1;PMS_P2;Temp;Humidity;BMP_temperature;BMP_pressure;BME280_temperature;BME280_humidity;BME280_pressure;Samples;Min_cycle;Max_cycle;Signal;HPM_P1;HPM_P2
2022/12/23 00:00:10;;;;;;;35.42;10.55;;;14.90;99.90;;;;;;5053034;28;20392;-64
2022/12/23 00:02:36;;;;;;;20.20;5.93;;;14.90;99.90;;;;;;5052865;28;20096;-64
2022/12/23 00:05:03;;;;;;;28.45;8.63;;;14.90;99.90;;;;;;5052184;28;20546;-63
2022/12/23 00:07:28;;;;;;;24.00;5.85;;;15.00;99.90;;;;;;5052918;28;20087;-63
2022/12/23 00:09:54;;;;;;;24.90;5.85;;;15.00;99.90;;;;;;5052107;28;20053;-63
2022/12/23 00:15:05;;;;;;;25.55;6.80;;;15.00;99.90;;;;;;5052792;28;20063;-64
2022/12/23 00:17:41;;;;;;;240.55;100.63;;;15.00;99.90;;;;;;5052770;28;20480;-63
2022/12/23 00:20:08;;;;;;;72.55;29.75;;;15.10;99.90;;;;;;5052701;28;20457;-64
2022/12/23 00:25:18;;;;;;;19.40;6.15;;;15.10;99.90;;;;;;5053174;28;20444;-64
2022/12/23 00:28:00;;;;;;;43.67;15.35;;;15.00;99.90;;;;;;5052900;28;20052;-64
2022/12/23 00:30:27;;;;;;;27.50;7.63;;;15.10;99.90;;;;;;5052530;28;20028;-63
2022/12/23 00:32:53;;;;;;;25.60;5.95;;;15.10;99.90;;;;;;5052015;28;20456;-64
2022/12/23 00:35:18;;;;;;;28.65;9.10;;;15.10;99.90;;;;;;5052490;28;20071;-63
2022/12/23 00:37:44;;;;;;;39.53;14.10;;;15.10;99.90;;;;;;5052414;28;20385;-64
2022/12/23 00:42:59;;;;;;;25.65;6.60;;;15.20;99.90;;;;;;5052517;28;20400;-63
2022/12/23 00:45:25;;;;;;;23.02;5.78;;;15.20;99.90;;;;;;5051976;28;20021;-64
2022/12/23 00:50:38;;;;;;;28.20;7.43;;;15.30;99.90;;;;;;5052393;28;20459;-64
2022/12/23 00:53:04;;;;;;;43.13;31.63;;;15.20;99.90;;;;;;5052246;28;20021;-64
2022/12/23 00:55:30;;;;;;;25.23;8.10;;;15.20;99.90;;;;;;5052016;28;20041;-64
2022/12/23 00:57:56;;;;;;;20.83;5.22;;;15.20;99.90;;;;;;5052019;28;20078;-64
2022/12/23 01:05:35;;;;;;;25.92;10.63;;;15.20;99.90;;;;;;5051702;28;20021;-64
2022/12/23 01:05:58;;;;;;;23.70;5.45;;;15.30;99.90;;;;;;5052287;28;20152;-64
2022/12/23 01:08:24;;;;;;;19.80;4.82;;;15.20;99.90;;;;;;5051661;28;20056;-64
2022/12/23 01:10:50;;;;;;;21.52;5.45;;;15.20;99.90;;;;;;5050687;28;20060;-64
2022/12/23 01:13:15;;;;;;;21.05;5.20;;;15.10;99.90;;;;;;5051872;28;20013;-64
2022/12/23 01:15:41;;;;;;;19.83;5.70;;;15.20;99.90;;;;;;5051581;28;20037;-64
2022/12/23 01:18:07;;;;;;;22.02;5.53;;;15.20;99.90;;;;;;5052243;28;20028;-63
2022/12/23 01:20:32;;;;;;;17.95;4.95;;;15.20;99.90;;;;;;5052274;28;20499;-64
2022/12/23 01:22:58;;;;;;;18.02;4.80;;;15.20;99.90;;;;;;5054996;28;20032;-64
2022/12/23 01:25:24;;;;;;;16.10;4.80;;;15.30;99.90;;;;;;5056153;28;20104;-64
2022/12/23 01:27:49;;;;;;;18.98;4.68;;;15.20;99.90;;;;;;5055684;28;20032;-64
2022/12/23 01:30:15;;;;;;;16.67;4.75;;;15.20;99.90;;;;;;5056256;28;20025;-63
2022/12/23 01:32:41;;;;;;;18.05;4.65;;;15.30;99.90;;;;;;5055934;28;20029;-64
2022/12/23 01:35:07;;;;;;;17.92;4.70;;;15.20;99.90;;;;;;5055743;28;20045;-63
2022/12/23 01:37:32;;;;;;;21.20;4.80;;;15.30;99.90;;;;;;5056184;28;20370;-64
2022/12/23 01:39:58;;;;;;;16.52;4.85;;;15.30;99.90;;;;;;5055710;28;20388;-63
2022/12/23 01:42:42;;;;;;;21.58;4.95;;;15.20;99.90;;;;;;5055638;28;20389;-64
2022/12/23 01:45:27;;;;;;;14.88;4.40;;;15.20;99.90;;;;;;5055444;28;20504;-64
2022/12/23 01:47:57;;;;;;;15.13;4.20;;;15.20;99.90;;;;;;5055633;28;20421;-64
2022/12/23 01:50:44;;;;;;;16.70;4.60;;;15.20;99.90;;;;;;5055504;28;20083;-63
2022/12/23 01:53:13;;;;;;;20.25;4.30;;;15.20;99.90;;;;;;5055411;28;20027;-63
2022/12/23 01:56:12;;;;;;;16.70;4.60;;;15.20;99.90;;;;;;5055141;28;20142;-64
2022/12/23 01:58:42;;;;;;;16.70;4.35;;;15.20;99.90;;;;;;5054995;28;20028;-63
2022/12/23 02:03:57;;;;;;;17.35;4.28;;;15.20;99.90;;;;;;5055574;28;20458;-64
2022/12/23 02:09:31;;;;;;;20.02;4.65;;;15.20;99.90;;;;;;5054987;28;20056;-64
2022/12/23 02:12:37;;;;;;;16.65;4.43;;;15.30;99.90;;;;;;5055032;28;20396;-64
2022/12/23 02:19:12;;;;;;;17.98;4.43;;;15.20;99.90;;;;;;5055627;28;20159;-64
2022/12/23 02:21:56;;;;;;;18.25;4.60;;;15.30;99.90;;;;;;5013046;28;20548;-64
2022/12/23 02:24:40;;;;;;;18.88;4.25;;;15.30;99.90;;;;;;5012898;28;20095;-64
2022/12/23 02:27:13;;;;;;;16.77;4.32;;;15.20;99.90;;;;;;5013114;28;20061;-64
2022/12/23 02:30:05;;;;;;;18.05;4.63;;;15.20;99.90;;;;;;5013076;28;20038;-64
2022/12/23 02:32:31;;;;;;;16.20;4.32;;;15.30;99.90;;;;;;5012263;28;20536;-63
2022/12/23 02:35:13;;;;;;;14.95;4.30;;;15.30;99.90;;;;;;5012711;28;20038;-64
2022/12/23 02:38:00;;;;;;;17.70;4.25;;;15.30;99.90;;;;;;5012814;28;20356;-64
2022/12/23 02:40:56;;;;;;;16.42;4.30;;;15.20;99.90;;;;;;5012735;28;20041;-63
2022/12/23 02:43:22;;;;;;;13.05;3.75;;;15.20;99.90;;;;;;5012639;28;20026;-64
2022/12/23 02:46:25;;;;;;;14.65;4.63;;;15.20;99.90;;;;;;5012709;28;20052;-64
2022/12/23 02:49:03;;;;;;;14.23;4.30;;;15.20;99.90;;;;;;5012542;28;20059;-64
2022/12/23 02:51:34;;;;;;;16.15;3.58;;;15.30;99.90;;;;;;5012621;28;20044;-64
2022/12/23 02:54:04;;;;;;;17.05;5.05;;;15.30;99.90;;;;;;5012262;28;20452;-64
2022/12/23 02:56:32;;;;;;;17.95;5.43;;;15.20;99.90;;;;;;5030971;28;20053;-64
2022/12/23 02:59:04;;;;;;;16.13;4.50;;;15.20;99.90;;;;;;5034277;28;20021;-64
2022/12/23 03:01:32;;;;;;;15.38;4.18;;;15.20;99.90;;;;;;5034187;28;20417;-64
2022/12/23 03:03:58;;;;;;;16.00;4.68;;;15.20;99.90;;;;;;5034405;28;20014;-64
2022/12/23 03:06:47;;;;;;;13.85;4.20;;;15.20;99.90;;;;;;5034226;28;20033;-64
2022/12/23 03:09:43;;;;;;;14.75;4.30;;;15.10;99.90;;;;;;5046044;28;20513;-64
2022/12/23 03:12:39;;;;;;;18.13;4.50;;;15.10;99.90;;;;;;5049303;28;20040;-64
2022/12/23 03:15:17;;;;;;;18.60;3.88;;;15.10;99.90;;;;;;5054259;28;20040;-64
2022/12/23 03:18:18;;;;;;;12.15;3.95;;;15.10;99.90;;;;;;5054015;28;20029;-64
2022/12/23 03:20:56;;;;;;;16.85;3.75;;;15.10;99.90;;;;;;5053632;28;20071;-64
2022/12/23 03:23:39;;;;;;;18.58;4.28;;;15.10;99.90;;;;;;5053865;28;20029;-64
2022/12/23 03:26:15;;;;;;;16.20;3.90;;;15.10;99.90;;;;;;5053525;28;20028;-64
2022/12/23 03:29:10;;;;;;;15.52;3.83;;;15.10;99.90;;;;;;5053891;28;20098;-63
2022/12/23 03:31:37;;;;;;;14.35;3.65;;;15.00;99.90;;;;;;5053981;28;20021;-64
2022/12/23 03:34:09;;;;;;;14.57;3.72;;;15.00;99.90;;;;;;5053622;28;20027;-64
2022/12/23 03:36:40;;;;;;;14.18;3.85;;;14.90;99.90;;;;;;5053389;28;20392;-64
2022/12/23 03:39:12;;;;;;;14.77;4.07;;;15.10;99.90;;;;;;5053576;28;20029;-64
2022/12/23 03:41:41;;;;;;;21.85;4.47;;;15.00;99.90;;;;;;5053350;28;20059;-64
2022/12/23 03:44:17;;;;;;;16.15;3.83;;;15.00;99.90;;;;;;5052420;28;20033;-64
2022/12/23 03:46:50;;;;;;;12.70;3.95;;;15.00;99.90;;;;;;5053086;28;20104;-64
2022/12/23 03:49:23;;;;;;;13.05;4.20;;;15.00;99.90;;;;;;5053693;28;20120;-63
2022/12/23 03:52:15;;;;;;;15.57;4.75;;;15.00;99.90;;;;;;5053221;28;20104;-64
2022/12/23 03:54:56;;;;;;;18.60;4.22;;;15.00;99.90;;;;;;5052726;28;20060;-64
2022/12/23 03:57:27;;;;;;;14.52;3.83;;;15.00;99.90;;;;;;5053082;28;20056;-64
2022/12/23 03:59:53;;;;;;;17.10;4.00;;;15.00;99.90;;;;;;5053207;28;20025;-64
2022/12/23 04:02:22;;;;;;;15.63;4.00;;;15.00;99.90;;;;;;5053091;28;20382;-64
2022/12/23 04:05:06;;;;;;;16.60;3.90;;;14.90;99.90;;;;;;5052917;28;20017;-64
2022/12/23 04:07:39;;;;;;;;;;;14.90;99.90;;;;;;5053336;28;20023;-64
2022/12/23 04:10:07;;;;;;;19.80;3.95;;;15.00;99.90;;;;;;5052652;28;20011;-64
2022/12/23 04:12:33;;;;;;;13.27;3.67;;;14.90;99.90;;;;;;5052731;28;20479;-65
2022/12/23 04:14:58;;;;;;;18.73;4.38;;;14.90;99.90;;;;;;5052676;28;20033;-64
2022/12/23 04:17:24;;;;;;;19.48;4.50;;;14.90;99.90;;;;;;5052714;28;20428;-64
2022/12/23 04:19:51;;;;;;;15.73;4.13;;;14.80;99.90;;;;;;5053071;28;20101;-64
2022/12/23 04:22:17;;;;;;;16.13;4.03;;;14.80;99.90;;;;;;5052578;28;20021;-64
2022/12/23 04:24:43;;;;;;;17.67;3.95;;;14.80;99.90;;;;;;5052282;28;20555;-64
2022/12/23 04:27:12;;;;;;;17.58;4.25;;;14.80;99.90;;;;;;5053107;28;20028;-64
2022/12/23 04:29:38;;;;;;;16.48;4.60;;;14.70;99.90;;;;;;5052450;28;20024;-64
2022/12/23 04:32:04;;;;;;;21.10;4.05;;;14.70;99.90;;;;;;5052475;28;20025;-64
2022/12/23 04:34:30;;;;;;;16.27;4.05;;;14.70;99.90;;;;;;5052452;28;20025;-65
2022/12/23 04:36:56;;;;;;;14.93;3.97;;;14.70;99.90;;;;;;5052581;28;20146;-64
2022/12/23 04:39:22;;;;;;;16.55;4.30;;;14.70;99.90;;;;;;5052188;28;20025;-63
2022/12/23 04:41:48;;;;;;;17.05;4.30;;;14.70;99.90;;;;;;5052380;28;20556;-64
2022/12/23 04:44:13;;;;;;;16.23;4.50;;;14.80;99.90;;;;;;5052654;28;20021;-64
2022/12/23 04:46:39;;;;;;;17.25;4.25;;;14.70;99.90;;;;;;5052104;28;20032;-64
2022/12/23 04:49:05;;;;;;;15.27;4.53;;;14.70;99.90;;;;;;5052163;28;20013;-63
2022/12/23 04:51:30;;;;;;;10.23;3.75;;;14.80;99.90;;;;;;5052164;28;20442;-64
2022/12/23 04:53:56;;;;;;;16.65;4.20;;;14.70;99.90;;;;;;5051839;28;20509;-64
2022/12/23 04:56:22;;;;;;;15.50;4.53;;;14.70;99.90;;;;;;5052317;28;20036;-64
2022/12/23 04:58:47;;;;;;;13.05;4.38;;;14.70;99.90;;;;;;5052175;28;20023;-64
2022/12/23 05:01:13;;;;;;;19.23;4.70;;;14.60;99.90;;;;;;5052145;28;20021;-64
2022/12/23 05:03:39;;;;;;;19.52;4.93;;;14.60;99.90;;;;;;5052416;28;20064;-64
2022/12/23 05:06:06;;;;;;;17.20;4.63;;;14.60;99.90;;;;;;5051817;28;20056;-64
2022/12/23 05:08:32;;;;;;;18.70;4.93;;;14.60;99.90;;;;;;5051540;28;20511;-64
2022/12/23 05:10:58;;;;;;;14.23;4.32;;;14.60;99.90;;;;;;5052027;28;20495;-63
2022/12/23 05:13:24;;;;;;;18.15;4.72;;;14.60;99.90;;;;;;5051989;28;20179;-64
2022/12/23 05:15:52;;;;;;;16.20;4.32;;;14.60;99.90;;;;;;5052301;28;20434;-64
2022/12/23 05:18:18;;;;;;;15.60;4.07;;;14.70;99.90;;;;;;5051878;28;20033;-64
2022/12/23 05:20:44;;;;;;;14.48;4.20;;;14.80;99.90;;;;;;5051405;28;20021;-64
2022/12/23 05:23:10;;;;;;;16.92;4.25;;;14.80;99.90;;;;;;5052369;28;20090;-64
2022/12/23 05:25:37;;;;;;;16.52;4.07;;;14.80;99.90;;;;;;5051541;28;20056;-64
2022/12/23 05:28:04;;;;;;;17.42;4.38;;;14.70;99.90;;;;;;5050425;28;20463;-64
2022/12/23 05:30:29;;;;;;;15.13;4.65;;;14.80;99.90;;;;;;5052065;28;20438;-64
2022/12/23 05:32:56;;;;;;;13.43;3.70;;;14.80;99.90;;;;;;5051600;28;20111;-64
2022/12/23 05:35:23;;;;;;;14.43;4.22;;;14.70;99.90;;;;;;5051772;28;20421;-64
2022/12/23 05:37:49;;;;;;;19.38;4.53;;;14.70;99.90;;;;;;5051890;28;20037;-64
2022/12/23 05:40:15;;;;;;;18.98;4.57;;;14.70;99.90;;;;;;5051787;28;20021;-64
2022/12/23 05:42:41;;;;;;;14.48;3.97;;;14.70;99.90;;;;;;5051570;28;20024;-64
2022/12/23 05:45:07;;;;;;;15.55;4.53;;;14.70;99.90;;;;;;5051499;28;20393;-64
2022/12/23 05:47:33;;;;;;;13.52;4.28;;;14.70;99.90;;;;;;5051607;28;20053;-64
2022/12/23 05:49:59;;;;;;;15.23;4.00;;;14.70;99.90;;;;;;5051440;28;20555;-64
2022/12/23 05:52:25;;;;;;;17.35;3.85;;;14.70;99.90;;;;;;5051934;28;20104;-64
2022/12/23 05:54:50;;;;;;;12.43;3.92;;;14.70;99.90;;;;;;5051498;28;20060;-64
2022/12/23 05:57:16;;;;;;;13.07;3.67;;;14.70;99.90;;;;;;5051484;28;20477;-64
2022/12/23 05:59:42;;;;;;;12.35;3.40;;;14.70;99.90;;;;;;5051531;28;20022;-64
2022/12/23 06:02:08;;;;;;;13.50;3.83;;;14.80;99.90;;;;;;5051497;28;20025;-64
2022/12/23 06:04:33;;;;;;;14.80;3.90;;;14.80;99.90;;;;;;5051596;28;20017;-64
2022/12/23 06:06:59;;;;;;;12.50;3.70;;;14.80;99.90;;;;;;5051496;28;20064;-64
2022/12/23 06:09:25;;;;;;;14.73;3.90;;;14.70;99.90;;;;;;5054875;28;20464;-64
2022/12/23 06:11:50;;;;;;;10.40;3.42;;;14.60;99.90;;;;;;5055170;28;20108;-64
2022/12/23 06:14:16;;;;;;;16.15;4.43;;;14.50;99.90;;;;;;5055119;28;20106;-64
2022/12/23 06:16:42;;;;;;;13.55;3.75;;;14.40;99.90;;;;;;5055032;28;20033;-64
2022/12/23 06:19:07;;;;;;;13.02;4.10;;;14.40;99.90;;;;;;5055111;28;20043;-64
2022/12/23 06:21:33;;;;;;;9.75;3.60;;;14.30;99.90;;;;;;5054993;28;20036;-64
2022/12/23 06:23:59;;;;;;;15.50;4.03;;;14.30;99.90;;;;;;5054888;28;20040;-64
2022/12/23 06:26:25;;;;;;;12.18;4.10;;;14.20;99.90;;;;;;5055374;28;20381;-64
2022/12/23 06:28:50;;;;;;;15.82;4.20;;;14.00;99.90;;;;;;5054654;28;20013;-64
2022/12/23 06:31:16;;;;;;;16.52;4.03;;;14.00;99.90;;;;;;5054683;28;20037;-64
2022/12/23 06:33:42;;;;;;;14.55;4.20;;;13.90;99.90;;;;;;5054378;28;20055;-64
2022/12/23 06:36:08;;;;;;;13.90;4.25;;;13.80;99.90;;;;;;5054676;28;20044;-64
2022/12/23 06:38:33;;;;;;;14.52;3.78;;;13.90;99.90;;;;;;5054982;28;20025;-64
2022/12/23 06:40:59;;;;;;;14.00;4.05;;;13.80;99.90;;;;;;5054758;28;20036;-64
2022/12/23 06:43:25;;;;;;;11.68;4.07;;;13.80;99.90;;;;;;5054593;28;20091;-64
2022/12/23 06:45:51;;;;;;;14.40;4.15;;;13.80;99.90;;;;;;5054451;28;20071;-64
2022/12/23 06:48:16;;;;;;;11.75;3.75;;;13.80;99.90;;;;;;5054642;28;20165;-64
2022/12/23 06:50:42;;;;;;;13.23;3.97;;;13.80;99.90;;;;;;5053016;28;20036;-64
2022/12/23 06:53:08;;;;;;;12.25;3.88;;;13.80;99.90;;;;;;5054548;28;20029;-63
2022/12/23 06:55:34;;;;;;;11.32;3.47;;;13.80;99.90;;;;;;5054192;28;20562;-64
2022/12/23 06:57:59;;;;;;;14.52;3.58;;;13.80;99.90;;;;;;5054395;28;20530;-64
2022/12/23 07:00:25;;;;;;;14.57;4.07;;;13.70;99.90;;;;;;5054715;28;20033;-64
2022/12/23 07:02:54;;;;;;;12.57;3.83;;;13.70;99.90;;;;;;5054180;28;20025;-64
2022/12/23 07:05:20;;;;;;;12.25;3.65;;;13.60;99.90;;;;;;5054230;28;20445;-64
2022/12/23 07:07:45;;;;;;;13.27;4.10;;;13.50;99.90;;;;;;5054220;28;20056;-64
2022/12/23 07:10:11;;;;;;;10.75;3.50;;;13.50;99.90;;;;;;5053660;28;20053;-64
2022/12/23 07:12:37;;;;;;;10.35;3.47;;;13.50;99.90;;;;;;5054028;28;20301;-64
2022/12/23 07:15:04;;;;;;;10.65;3.78;;;13.50;99.90;;;;;;5054072;28;20037;-64
2022/12/23 07:17:30;;;;;;;14.43;3.90;;;13.50;99.90;;;;;;5053546;28;20033;-64
2022/12/23 07:19:56;;;;;;;13.82;3.92;;;13.40;99.90;;;;;;5054154;28;20098;-64
2022/12/23 07:22:21;;;;;;;13.18;3.70;;;13.40;99.90;;;;;;5053895;28;20028;-64
2022/12/23 07:24:47;;;;;;;13.80;3.90;;;13.40;99.90;;;;;;5053737;28;20035;-64
2022/12/23 07:27:13;;;;;;;13.75;4.15;;;13.30;99.90;;;;;;5053764;28;20106;-63
2022/12/23 07:29:38;;;;;;;12.90;3.50;;;13.30;99.90;;;;;;5053948;28;20120;-64
2022/12/23 07:32:04;;;;;;;15.25;4.35;;;13.20;99.90;;;;;;5053232;28;20503;-64
2022/12/23 07:34:30;;;;;;;14.30;4.43;;;13.20;99.90;;;;;;5053424;28;20029;-64
2022/12/23 07:36:55;;;;;;;13.05;4.40;;;13.20;99.90;;;;;;5053628;28;20028;-64
2022/12/23 07:39:21;;;;;;;14.43;3.70;;;13.10;99.90;;;;;;5053390;28;20032;-64
2022/12/23 07:41:47;;;;;;;11.30;3.90;;;13.20;99.90;;;;;;5053846;28;20033;-64
2022/12/23 07:44:13;;;;;;;11.90;4.28;;;13.20;99.90;;;;;;5053337;28;20025;-64
2022/12/23 07:46:39;;;;;;;10.88;3.83;;;13.20;99.90;;;;;;5052990;28;20039;-64
2022/12/23 07:49:04;;;;;;;14.20;4.65;;;13.20;99.90;;;;;;5053553;28;20407;-64
2022/12/23 07:51:31;;;;;;;17.95;5.90;;;13.10;99.90;;;;;;5053184;28;20037;-64
2022/12/23 07:53:57;;;;;;;15.50;6.28;;;13.10;99.90;;;;;;5052991;28;20049;-62
2022/12/23 07:56:22;;;;;;;14.80;5.72;;;13.00;99.90;;;;;;5053335;28;20059;-64
2022/12/23 07:58:52;;;;;;;16.75;6.50;;;13.00;99.90;;;;;;5052976;28;20546;-62
2022/12/23 08:01:19;;;;;;;16.67;6.07;;;13.00;99.90;;;;;;5052922;28;20044;-64
2022/12/23 08:03:45;;;;;;;16.33;5.90;;;12.90;99.90;;;;;;5053380;28;20025;-63
2022/12/23 08:06:14;;;;;;;16.60;6.13;;;12.90;99.90;;;;;;5052835;28;20025;-64
2022/12/23 08:08:40;;;;;;;16.80;6.85;;;12.90;99.90;;;;;;5051292;28;20036;-64
2022/12/23 08:11:09;;;;;;;19.65;7.25;;;12.80;99.90;;;;;;5052879;28;20099;-64
2022/12/23 08:13:37;;;;;;;17.80;7.30;;;12.80;99.90;;;;;;5052885;28;20025;-63
2022/12/23 08:16:04;;;;;;;16.48;8.27;;;12.80;99.90;;;;;;5052455;28;20043;-64
2022/12/23 08:18:35;;;;;;;21.05;9.00;;;12.80;99.90;;;;;;5052683;28;20049;-64
2022/12/23 08:21:03;;;;;;;22.13;9.10;;;12.80;99.90;;;;;;5052690;28;20056;-64
2022/12/23 08:23:30;;;;;;;23.95;11.10;;;12.80;99.90;;;;;;5052730;28;20424;-64
2022/12/23 08:26:00;;;;;;;21.27;10.13;;;12.80;99.90;;;;;;5052972;28;20033;-64
2022/12/23 08:28:27;;;;;;;22.45;11.07;;;12.80;99.90;;;;;;5052356;28;20422;-64
2022/12/23 08:30:52;;;;;;;21.08;10.90;;;12.80;99.90;;;;;;5051299;28;20044;-64
2022/12/23 08:33:18;;;;;;;20.88;11.15;;;12.80;99.90;;;;;;5052255;28;20056;-64
2022/12/23 08:35:44;;;;;;;24.52;11.75;;;12.80;99.90;;;;;;5052414;28;20059;-64
2022/12/23 08:38:09;;;;;;;23.80;11.70;;;12.90;99.90;;;;;;5052392;28;20068;-64
2022/12/23 08:40:38;;;;;;;21.52;11.40;;;13.40;99.90;;;;;;5052332;28;20079;-64
2022/12/23 08:43:04;;;;;;;22.02;12.13;;;13.30;99.90;;;;;;5052300;28;20338;-64
2022/12/23 08:45:30;;;;;;;20.92;10.70;;;13.20;99.90;;;;;;5051721;28;20499;-64
2022/12/23 08:47:55;;;;;;;18.60;10.27;;;13.20;99.90;;;;;;5052519;28;20029;-64
2022/12/23 08:50:21;;;;;;;19.23;10.85;;;13.20;99.90;;;;;;5052150;28;20036;-64
2022/12/23 08:52:47;;;;;;;18.75;10.98;;;13.30;99.90;;;;;;5052126;28;20468;-64
2022/12/23 08:55:12;;;;;;;18.77;10.32;;;13.30;99.90;;;;;;5052101;28;20044;-65
2022/12/23 08:57:38;;;;;;;18.23;9.25;;;13.40;99.90;;;;;;5052472;28;20070;-64
2022/12/23 09:00:04;;;;;;;16.05;9.20;;;13.50;99.90;;;;;;5051729;28;20029;-64
2022/12/23 09:02:30;;;;;;;18.73;9.63;;;13.50;99.90;;;;;;5052443;28;20029;-64
2022/12/23 09:04:56;;;;;;;16.20;9.63;;;13.50;99.90;;;;;;5052265;28;20071;-64
2022/12/23 09:07:21;;;;;;;14.93;8.73;;;13.40;99.90;;;;;;5051997;28;20103;-64
2022/12/23 09:09:47;;;;;;;17.27;9.50;;;13.40;99.90;;;;;;5051957;28;20045;-64
2022/12/23 09:12:13;;;;;;;14.77;8.98;;;13.30;99.90;;;;;;5051872;28;20028;-64
2022/12/23 09:14:38;;;;;;;18.48;9.18;;;13.30;99.90;;;;;;5051551;28;20036;-65
2022/12/23 09:17:04;;;;;;;16.02;8.88;;;13.40;99.90;;;;;;5052153;28;20025;-64
2022/12/23 09:19:30;;;;;;;17.25;8.80;;;13.30;99.90;;;;;;5051856;28;20071;-64
2022/12/23 09:21:55;;;;;;;12.02;6.97;;;13.40;99.90;;;;;;5051854;28;20781;-64
2022/12/23 09:24:21;;;;;;;11.55;6.65;;;13.50;99.90;;;;;;5052393;28;20026;-64
2022/12/23 09:26:47;;;;;;;12.13;6.80;;;13.40;99.90;;;;;;5051733;28;20553;-64
2022/12/23 09:29:12;;;;;;;15.05;6.30;;;13.40;99.90;;;;;;5051647;28;20037;-64
2022/12/23 09:31:38;;;;;;;12.98;6.00;;;13.40;99.90;;;;;;5051869;28;20021;-64
2022/12/23 09:34:04;;;;;;;10.90;5.60;;;13.40;99.90;;;;;;5051824;28;20025;-64
2022/12/23 09:36:30;;;;;;;11.25;6.25;;;13.40;99.90;;;;;;5052225;28;20047;-65
2022/12/23 09:38:56;;;;;;;8.90;5.32;;;13.40;99.90;;;;;;5051777;28;20033;-64
2022/12/23 09:41:49;;;;;;;12.65;5.47;;;13.50;99.90;;;;;;5050509;28;20029;-64
2022/12/23 09:44:36;;;;;;;8.48;4.93;;;13.60;99.90;;;;;;5055267;28;20083;-64
2022/12/23 09:47:06;;;;;;;10.27;5.47;;;13.60;99.90;;;;;;5055601;28;20060;-65
2022/12/23 09:49:33;;;;;;;8.80;4.90;;;13.80;99.90;;;;;;5055647;28;20036;-64
2022/12/23 09:52:04;;;;;;;10.18;4.63;;;13.80;99.90;;;;;;5055499;28;20063;-64
2022/12/23 09:54:44;;;;;;;11.98;4.95;;;13.90;99.90;;;;;;5055864;28;20024;-64
2022/12/23 09:57:23;;;;;;;8.13;4.78;;;14.10;99.90;;;;;;5055133;28;20086;-64
2022/12/23 10:00:08;;;;;;;10.77;4.53;;;14.30;99.90;;;;;;5055380;28;20025;-64
2022/12/23 10:02:54;;;;;;;8.23;3.85;;;14.60;99.90;;;;;;5055285;28;20021;-64
2022/12/23 10:05:38;;;;;;;9.48;3.65;;;16.50;99.90;;;;;;5055622;28;20504;-64
2022/12/23 10:08:13;;;;;;;8.38;3.90;;;16.30;99.90;;;;;;5054992;28;20072;-65
2022/12/23 10:10:47;;;;;;;8.75;3.80;;;17.40;99.90;;;;;;5054831;28;20041;-64
2022/12/23 10:13:25;;;;;;;9.73;3.60;;;18.50;99.90;;;;;;5055097;28;20033;-64
2022/12/23 10:15:52;;;;;;;9.48;4.47;;;18.60;99.90;;;;;;5055347;28;20029;-64
2022/12/23 10:18:25;;;;;;;7.00;2.88;;;17.80;99.90;;;;;;5055061;28;20032;-64
2022/12/23 10:21:03;;;;;;;;;;;18.20;99.90;;;;;;5055383;28;20033;-64
2022/12/23 10:23:41;;;;;;;9.00;3.13;;;17.30;99.90;;;;;;5054877;28;20284;-64
2022/12/23 10:26:16;;;;;;;6.55;3.00;;;16.50;99.90;;;;;;5054932;28;20064;-64
2022/12/23 10:28:43;;;;;;;7.97;3.03;;;16.20;99.90;;;;;;5054704;28;20029;-64
2022/12/23 10:31:25;;;;;;;6.40;2.72;;;16.20;99.90;;;;;;5054763;28;20056;-64
2022/12/23 10:34:20;;;;;;;6.35;2.90;;;16.40;99.90;;;;;;5054741;28;20036;-64
2022/12/23 10:37:10;;;;;;;5.88;2.90;;;17.10;99.90;;;;;;5054749;28;20047;-64
2022/12/23 10:40:00;;;;;;;7.90;3.25;;;17.60;99.90;;;;;;5054442;28;20025;-64
2022/12/23 10:42:28;;;;;;;7.55;3.60;;;17.20;99.90;;;;;;5054615;28;20032;-64
2022/12/23 10:44:57;;;;;;;8.50;2.97;;;16.90;99.90;;;;;;5054958;28;20028;-64
2022/12/23 10:47:48;;;;;;;7.18;2.90;;;16.90;99.90;;;;;;5054488;28;20032;-64
2022/12/23 10:50:32;;;;;;;7.90;3.13;;;17.90;99.90;;;;;;5054620;28;20547;-64
2022/12/23 10:53:03;;;;;;;6.50;2.95;;;17.60;99.90;;;;;;5054177;28;20099;-64
2022/12/23 10:55:33;;;;;;;5.55;2.85;;;17.60;99.90;;;;;;5053930;28;20048;-64
2022/12/23 10:58:14;;;;;;;7.72;3.05;;;18.00;99.90;;;;;;5054320;28;20394;-64
2022/12/23 11:00:44;;;;;;;8.18;2.70;;;17.60;99.90;;;;;;5054464;28;20040;-64
2022/12/23 11:03:15;;;;;;;5.68;2.95;;;17.20;99.90;;;;;;5054285;28;20043;-64
2022/12/23 11:05:42;;;;;;;7.80;3.03;;;16.90;99.90;;;;;;5054347;28;20465;-64
2022/12/23 11:08:08;;;;;;;7.57;3.20;;;16.80;99.90;;;;;;5054072;28;20024;-64
2022/12/23 11:10:34;;;;;;;6.57;3.00;;;16.60;99.90;;;;;;5052200;28;20056;-64
2022/12/23 11:13:00;;;;;;;6.13;2.67;;;16.50;99.90;;;;;;5054398;28;20025;-65
2022/12/23 11:15:29;;;;;;;7.57;3.35;;;16.40;99.90;;;;;;5054075;28;20047;-64
2022/12/23 11:17:58;;;;;;;8.48;3.05;;;16.40;99.90;;;;;;5052725;28;20390;-64
2022/12/23 11:20:24;;;;;;;6.18;3.30;;;16.40;99.90;;;;;;5053959;28;20025;-64
2022/12/23 11:22:57;;;;;;;5.68;3.05;;;16.50;99.90;;;;;;5053926;28;20036;-64
2022/12/23 11:25:28;;;;;;;7.32;3.03;;;16.50;99.90;;;;;;5053730;28;20099;-64
2022/12/23 11:28:04;;;;;;;7.32;3.30;;;16.60;99.90;;;;;;5053695;28;20012;-64
2022/12/23 11:30:35;;;;;;;5.45;2.95;;;16.70;99.90;;;;;;5053948;28;20052;-64
2022/12/23 11:33:01;;;;;;;6.63;3.00;;;16.80;99.90;;;;;;5053745;28;20021;-64
2022/12/23 11:35:29;;;;;;;8.05;3.10;;;16.80;99.90;;;;;;5053539;28;20044;-64
2022/12/23 11:38:00;;;;;;;9.07;3.10;;;16.70;99.90;;;;;;5053400;28;20069;-64
2022/12/23 11:40:36;;;;;;;7.57;3.35;;;16.70;99.90;;;;;;5053855;28;20111;-64
2022/12/23 11:43:15;;;;;;;6.53;3.42;;;16.80;99.90;;;;;;5053684;28;20021;-64
2022/12/23 11:45:40;;;;;;;5.22;3.40;;;16.70;99.90;;;;;;5053581;28;20528;-64
2022/12/23 11:48:27;;;;;;;8.48;4.00;;;16.80;99.90;;;;;;5053338;28;20053;-64
2022/12/23 11:51:01;;;;;;;8.85;3.53;;;16.90;99.90;;;;;;5053483;28;20029;-64
2022/12/23 11:53:27;;;;;;;8.38;3.42;;;16.80;99.90;;;;;;5053075;28;20025;-64
2022/12/23 11:55:58;;;;;;;5.25;3.10;;;17.00;99.90;;;;;;5053012;28;20036;-64
2022/12/23 11:58:26;;;;;;;6.22;3.70;;;17.20;99.90;;;;;;5053367;28;20477;-64
2022/12/23 12:00:56;;;;;;;7.40;3.90;;;17.20;99.90;;;;;;5053023;28;20024;-64
2022/12/23 12:03:26;;;;;;;9.88;4.00;;;17.20;99.90;;;;;;5053122;28;20032;-64
2022/12/23 12:05:58;;;;;;;8.13;3.92;;;17.10;99.90;;;;;;5052506;28;20079;-64
2022/12/23 12:08:30;;;;;;;8.88;4.20;;;16.90;99.90;;;;;;5052692;28;20029;-64
2022/12/23 12:11:26;;;;;;;7.80;4.10;;;16.90;99.90;;;;;;5052877;28;20037;-64
2022/12/23 12:14:01;;;;;;;7.93;3.92;;;17.00;99.90;;;;;;5050640;28;20033;-64
2022/12/23 12:16:30;;;;;;;7.22;4.18;;;16.90;99.90;;;;;;5052939;28;20445;-64
2022/12/23 12:19:15;;;;;;;7.47;4.22;;;17.00;99.90;;;;;;5052905;28;20025;-64
2022/12/23 12:21:43;;;;;;;6.97;4.13;;;17.00;99.90;;;;;;5052739;28;20025;-64
2022/12/23 12:24:20;;;;;;;9.73;4.38;;;17.00;99.90;;;;;;5052617;28;20490;-64
2022/12/23 12:26:50;;;;;;;6.97;4.22;;;17.20;99.90;;;;;;5053023;28;20048;-65
2022/12/23 12:29:19;;;;;;;6.30;4.45;;;17.50;99.90;;;;;;5052623;28;20435;-64
2022/12/23 12:31:49;;;;;;;9.40;4.28;;;17.80;99.90;;;;;;5052626;28;20074;-64
2022/12/23 12:34:20;;;;;;;7.25;4.05;;;17.90;99.90;;;;;;5052692;28;20477;-64
2022/12/23 12:37:07;;;;;;;7.13;3.95;;;18.10;99.90;;;;;;5052095;28;20112;-64
2022/12/23 12:39:44;;;;;;;7.10;3.60;;;18.10;99.90;;;;;;5052544;28;20021;-64
2022/12/23 12:42:20;;;;;;;5.75;3.10;;;18.00;99.90;;;;;;5052350;28;20021;-64
2022/12/23 12:44:57;;;;;;;6.85;3.22;;;18.00;99.90;;;;;;5052059;28;20077;-64
2022/12/23 12:47:41;;;;;;;8.75;3.35;;;18.10;99.90;;;;;;5052572;28;20033;-64
2022/12/23 12:50:26;;;;;;;7.60;2.80;;;18.20;99.90;;;;;;5051912;28;20043;-64
2022/12/23 12:52:58;;;;;;;6.65;3.00;;;18.30;99.90;;;;;;5052130;28;20040;-64
2022/12/23 12:55:36;;;;;;;6.80;2.30;;;18.40;99.90;;;;;;5052335;28;20035;-65
2022/12/23 12:58:02;;;;;;;4.22;2.53;;;18.30;99.90;;;;;;5052481;28;20021;-64
2022/12/23 13:00:28;;;;;;;3.72;2.33;;;18.20;99.90;;;;;;5052091;28;20028;-64
2022/12/23 13:03:30;;;;;;;7.15;2.65;;;18.30;99.90;;;;;;5051952;28;20024;-64
2022/12/23 13:06:21;;;;;;;3.85;2.20;;;18.30;99.90;;;;;;5051946;28;20035;-64
2022/12/23 13:09:01;;;;;;;6.47;3.50;;;18.20;99.90;;;;;;5048506;28;20497;-65
2022/12/23 13:11:49;;;;;;;8.82;4.78;;;18.10;99.90;;;;;;5051917;28;20401;-65
2022/12/23 13:14:28;;;;;;;6.93;3.65;;;18.10;99.90;;;;;;5051867;28;20437;-64
2022/12/23 13:17:27;;;;;;;5.45;3.08;;;18.00;99.90;;;;;;5054565;28;20480;-64
2022/12/23 13:20:09;;;;;;;8.70;3.28;;;18.00;99.90;;;;;;5058177;28;20096;-64